Time;durP1;ratioP1;P1;durP2;ratioP2;P2;SDS_P1;SDS_P2;PMS_P1;PMS_P2;Temp;Humidity;BMP_temperature;BMP_pressure;BME280_temperature;BME280_humidity;BME280_pressure;Samples;Min_cycle;Max_cycle;Signal;HPM_P1;HPM_P2
2024/01/18 00:00:14;;;;;;;0.60;0.60;;;;;;;9.22;100.00;94280.19;5102092;27;20653;-57
2024/01/18 00:02:45;;;;;;;0.50;0.50;;;;;;;9.32;100.00;94258.75;5099320;28;20292;-56
2024/01/18 00:05:11;;;;;;;0.70;0.70;;;;;;;9.25;100.00;94263.19;5100399;28;20221;-56
2024/01/18 00:07:38;;;;;;;0.63;0.63;;;;;;;9.28;100.00;94260.19;5099255;28;20247;-57
2024/01/18 00:10:05;;;;;;;0.77;0.77;;;;;;;9.32;100.00;94269.31;5100314;28;20641;-57
2024/01/18 00:12:35;;;;;;;0.50;0.50;;;;;;;9.30;100.00;94260.78;5099365;28;20240;-58
2024/01/18 00:15:02;;;;;;;0.37;0.37;;;;;;;9.30;100.00;94274.78;5099723;28;20250;-56
2024/01/18 00:17:28;;;;;;;0.30;0.30;;;;;;;9.28;100.00;94279.44;5100078;28;20616;-57
2024/01/18 00:19:57;;;;;;;0.40;0.40;;;;;;;9.29;100.00;94274.97;5098131;28;20201;-57
2024/01/18 00:22:26;;;;;;;0.53;0.53;;;;;;;9.14;100.00;94276.91;5100062;28;20202;-56
2024/01/18 00:24:53;;;;;;;0.50;0.50;;;;;;;9.18;100.00;94278.13;5099999;28;20198;-57
2024/01/18 00:27:20;;;;;;;0.57;0.57;;;;;;;9.12;100.00;94282.38;5099520;28;20208;-56
2024/01/18 00:29:46;;;;;;;0.73;0.40;;;;;;;9.08;100.00;94282.94;5098022;28;20206;-57
2024/01/18 00:32:15;;;;;;;0.30;0.30;;;;;;;9.13;100.00;94277.91;5099246;28;20217;-57
2024/01/18 00:34:42;;;;;;;0.30;0.20;;;;;;;9.16;100.00;94280.97;5098648;28;20287;-57
2024/01/18 00:37:10;;;;;;;0.30;0.30;;;;;;;9.14;100.00;94276.91;5100554;28;20665;-57
2024/01/18 00:39:42;;;;;;;0.33;0.33;;;;;;;9.13;100.00;94276.09;5099273;28;20211;-57
2024/01/18 00:42:08;;;;;;;1.97;0.40;;;;;;;8.99;100.00;94267.28;5099910;28;20198;-57
2024/01/18 00:44:35;;;;;;;0.50;0.50;;;;;;;9.04;100.00;94281.69;5098908;28;20212;-57
2024/01/18 00:47:02;;;;;;;0.60;0.60;;;;;;;9.04;100.00;94279.03;5097903;28;20936;-56
2024/01/18 00:49:29;;;;;;;0.30;0.30;;;;;;;9.11;100.00;94285.19;5099344;28;20714;-57
2024/01/18 00:51:55;;;;;;;0.53;0.40;;;;;;;9.02;100.00;94273.16;5098900;28;20224;-57
2024/01/18 00:54:23;;;;;;;0.40;0.40;;;;;;;9.14;100.00;94279.56;5099381;28;20211;-57
2024/01/18 00:56:50;;;;;;;0.43;0.37;;;;;;;9.16;100.00;94277.53;5099301;28;20209;-57
2024/01/18 00:59:16;;;;;;;1.03;0.50;;;;;;;9.20;100.00;94281.41;5099562;28;20201;-57
2024/01/18 01:01:43;;;;;;;0.50;0.50;;;;;;;9.14;100.00;94282.97;5098089;28;20190;-57
2024/01/18 01:04:10;;;;;;;0.20;0.20;;;;;;;9.19;100.00;94274.50;5099459;28;20581;-57
2024/01/18 01:06:36;;;;;;;0.60;0.60;;;;;;;9.16;100.00;94275.72;5099910;28;20327;-56
2024/01/18 01:09:03;;;;;;;0.20;0.20;;;;;;;9.12;100.00;94271.00;5099919;28;20197;-57
2024/01/18 01:11:32;;;;;;;0.50;0.50;;;;;;;9.11;100.00;94269.38;5099953;28;20233;-56
2024/01/18 01:13:59;;;;;;;0.40;0.40;;;;;;;9.08;100.00;94269.75;5104394;28;20197;-56
2024/01/18 01:16:26;;;;;;;0.40;0.30;;;;;;;9.13;100.00;94267.38;5103900;28;20269;-57
2024/01/18 01:18:52;;;;;;;0.40;0.40;;;;;;;9.13;100.00;94270.00;5088490;28;20296;-56
2024/01/18 01:21:19;;;;;;;0.87;0.50;;;;;;;9.09;100.00;94263.47;5103750;28;20194;-56
2024/01/18 01:23:48;;;;;;;0.50;0.50;;;;;;;9.03;100.00;94258.97;5103871;28;20205;-56
2024/01/18 01:26:15;;;;;;;0.50;0.50;;;;;;;9.00;100.00;94271.53;5102073;28;20630;-55
2024/01/18 01:28:43;;;;;;;0.43;0.43;;;;;;;9.00;100.00;94271.53;5103353;28;20252;-56
2024/01/18 01:31:10;;;;;;;0.47;0.47;;;;;;;8.92;100.00;94266.41;5102171;28;20227;-56
2024/01/18 01:33:36;;;;;;;0.60;0.60;;;;;;;8.94;100.00;94272.28;5102922;28;20209;-57
2024/01/18 01:36:04;;;;;;;1.30;0.30;;;;;;;8.87;100.00;94276.69;5102861;28;20648;-57
2024/01/18 01:38:30;;;;;;;0.50;0.50;;;;;;;8.93;100.00;94275.94;5103744;28;20240;-57
2024/01/18 01:40:57;;;;;;;0.30;0.30;;;;;;;8.94;100.00;94282.84;5101944;28;20267;-57
2024/01/18 01:43:23;;;;;;;0.13;0.13;;;;;;;9.01;100.00;94277.59;5101761;28;20202;-56
2024/01/18 01:45:51;;;;;;;0.40;0.40;;;;;;;9.03;100.00;94272.97;5102376;28;20205;-57
2024/01/18 01:48:18;;;;;;;0.30;0.30;;;;;;;9.00;100.00;94275.97;5101855;28;20203;-57
2024/01/18 01:50:45;;;;;;;0.30;0.30;;;;;;;9.02;100.00;94278.44;5105159;28;20301;-57
2024/01/18 01:53:12;;;;;;;0.30;0.30;;;;;;;8.99;100.00;94279.63;5105353;28;20750;-57
2024/01/18 01:55:39;;;;;;;0.40;0.40;;;;;;;9.05;100.00;94276.22;5088342;28;20198;-57
2024/01/18 01:58:06;;;;;;;0.30;0.30;;;;;;;9.02;100.00;94273.16;5101988;27;20221;-57
2024/01/18 02:00:33;;;;;;;0.27;0.27;;;;;;;8.98;100.00;94273.53;5101162;28;20203;-57
2024/01/18 02:03:01;;;;;;;0.40;0.40;;;;;;;8.92;100.00;94274.31;5101992;28;20680;-57
2024/01/18 02:05:28;;;;;;;0.67;0.27;;;;;;;8.87;100.00;94275.88;5101582;27;20208;-56
2024/01/18 02:07:55;;;;;;;0.47;0.40;;;;;;;8.88;100.00;94269.59;5101993;28;20197;-57
2024/01/18 02:10:22;;;;;;;0.20;0.20;;;;;;;8.92;100.00;94269.03;5101953;28;20208;-57
2024/01/18 02:12:51;;;;;;;0.30;0.30;;;;;;;9.00;100.00;94255.72;5101955;28;20716;-56
2024/01/18 02:15:18;;;;;;;0.20;0.20;;;;;;;9.04;100.00;94253.50;5101220;28;20212;-56
2024/01/18 02:17:45;;;;;;;0.33;0.30;;;;;;;9.08;100.00;94262.66;5102546;28;20206;-57
2024/01/18 02:20:13;;;;;;;0.17;0.17;;;;;;;9.12;100.00;94263.09;5102929;28;20194;-57
2024/01/18 02:22:45;;;;;;;0.40;0.40;;;;;;;9.10;100.00;94267.75;5100584;28;20190;-57
2024/01/18 02:25:21;;;;;;;0.20;0.20;;;;;;;8.98;100.00;94255.09;5102463;28;20202;-57
2024/01/18 02:27:47;;;;;;;1.80;0.40;;;;;;;9.01;100.00;94261.81;5102054;28;20207;-57
2024/01/18 02:30:14;;;;;;;1.27;0.23;;;;;;;8.97;100.00;94255.28;5106265;28;20207;-57
2024/01/18 02:32:41;;;;;;;0.13;0.13;;;;;;;8.99;100.00;94259.38;5104370;27;20232;-56
2024/01/18 02:35:08;;;;;;;0.20;0.20;;;;;;;9.03;100.00;94251.06;5101380;28;20201;-55
2024/01/18 02:37:35;;;;;;;1.13;0.20;;;;;;;8.95;100.00;94255.47;5100718;28;20295;-56
2024/01/18 02:40:01;;;;;;;0.40;0.40;;;;;;;8.93;100.00;94244.31;5100067;28;20197;-57
2024/01/18 02:42:29;;;;;;;0.40;0.30;;;;;;;8.89;100.00;94237.78;5101241;28;20189;-57
2024/01/18 02:44:57;;;;;;;0.20;0.20;;;;;;;8.92;100.00;94242.69;5103414;28;20194;-56
2024/01/18 02:47:24;;;;;;;0.10;0.10;;;;;;;8.90;100.00;94243.88;5102640;28;20584;-57
2024/01/18 02:49:51;;;;;;;0.10;0.10;;;;;;;8.85;100.00;94247.09;5101796;28;20296;-56
2024/01/18 02:52:18;;;;;;;0.10;0.10;;;;;;;8.83;100.00;94249.09;5102538;28;20220;-57
2024/01/18 02:54:45;;;;;;;2.30;0.20;;;;;;;8.78;100.00;94235.69;5100348;28;20605;-57
2024/01/18 02:57:12;;;;;;;0.30;0.30;;;;;;;8.76;100.00;94232.41;5101331;28;20215;-57
2024/01/18 02:59:40;;;;;;;0.00;0.00;;;;;;;8.71;100.00;94236.63;5098738;28;20209;-56
2024/01/18 03:02:08;;;;;;;0.20;0.20;;;;;;;8.68;100.00;94226.47;5103111;28;20212;-57
2024/01/18 03:04:35;;;;;;;0.20;0.20;;;;;;;8.66;100.00;94237.19;5113219;28;20212;-57
2024/01/18 03:07:01;;;;;;;1.90;0.27;;;;;;;8.63;100.00;94226.22;5105760;28;20256;-56
2024/01/18 03:09:28;;;;;;;0.17;0.10;;;;;;;8.61;100.00;94231.66;5103906;28;20223;-57
2024/01/18 03:11:54;;;;;;;1.07;0.30;;;;;;;8.59;100.00;94236.31;5102625;28;20216;-57
2024/01/18 03:14:21;;;;;;;0.20;0.20;;;;;;;8.62;100.00;94235.94;5102678;28;20205;-57
2024/01/18 03:16:49;;;;;;;0.13;0.13;;;;;;;8.59;100.00;94230.25;5102201;28;20204;-56
2024/01/18 03:19:15;;;;;;;0.23;0.23;;;;;;;8.53;100.00;94221.28;5103045;28;20205;-57
2024/01/18 03:21:42;;;;;;;1.40;0.13;;;;;;;8.45;100.00;94224.88;5102685;28;20208;-57
2024/01/18 03:24:09;;;;;;;0.17;0.17;;;;;;;8.40;100.00;94234.31;5103314;28;20204;-56
2024/01/18 03:26:35;;;;;;;1.20;0.20;;;;;;;8.32;100.00;94229.19;5103224;28;20206;-56
2024/01/18 03:29:02;;;;;;;2.43;0.20;;;;;;;8.21;100.00;94222.59;5102724;28;20741;-57
2024/01/18 03:31:28;;;;;;;0.90;0.17;;;;;;;8.19;100.00;94221.13;5102255;28;20579;-57
2024/01/18 03:33:56;;;;;;;1.20;0.27;;;;;;;8.13;100.00;94213.97;5101611;28;20243;-57
2024/01/18 03:36:23;;;;;;;1.63;0.13;;;;;;;8.14;100.00;94200.66;5101961;28;20205;-56
2024/01/18 03:38:50;;;;;;;0.20;0.20;;;;;;;8.17;100.00;94202.06;5103042;27;20215;-56
2024/01/18 03:41:16;;;;;;;0.30;0.30;;;;;;;8.17;100.00;94209.97;5102053;28;20200;-57
2024/01/18 03:43:43;;;;;;;0.20;0.20;;;;;;;8.17;100.00;94207.34;5102496;28;20203;-57
2024/01/18 03:46:13;;;;;;;0.27;0.20;;;;;;;8.34;100.00;94199.03;5102635;28;20318;-57
2024/01/18 03:48:40;;;;;;;0.70;0.13;;;;;;;8.39;100.00;94198.47;5102257;28;20200;-57
2024/01/18 03:51:10;;;;;;;0.20;0.20;;;;;;;8.42;100.00;94192.81;5101645;28;20211;-56
2024/01/18 03:53:42;;;;;;;0.20;0.20;;;;;;;8.50;100.00;94190.06;5102699;28;20384;-58
2024/01/18 03:56:08;;;;;;;0.20;0.20;;;;;;;8.59;100.00;94178.38;5102635;27;20280;-58
2024/01/18 03:58:37;;;;;;;0.23;0.20;;;;;;;8.58;100.00;94187.28;5109418;28;20216;-57
2024/01/18 04:01:04;;;;;;;0.20;0.20;;;;;;;8.58;100.00;94192.53;5106867;28;20194;-57
2024/01/18 04:03:31;;;;;;;0.23;0.23;;;;;;;8.55;100.00;94195.56;5103751;28;20200;-57
2024/01/18 04:05:57;;;;;;;0.40;0.20;;;;;;;8.56;100.00;94191.13;5103838;27;20335;-57
2024/01/18 04:08:25;;;;;;;0.40;0.10;;;;;;;8.53;100.00;94189.69;5103524;28;20216;-57
2024/01/18 04:10:53;;;;;;;1.50;0.33;;;;;;;8.46;100.00;94188.81;5104263;28;20257;-57
2024/01/18 04:13:20;;;;;;;0.20;0.20;;;;;;;8.38;100.00;94187.13;5103172;28;20225;-57
2024/01/18 04:15:47;;;;;;;0.93;0.30;;;;;;;8.36;100.00;94194.38;5102235;28;20285;-57
2024/01/18 04:18:14;;;;;;;0.23;0.20;;;;;;;8.38;100.00;94191.56;5103324;28;20213;-58
2024/01/18 04:20:41;;;;;;;0.20;0.20;;;;;;;8.33;100.00;94196.56;5102063;28;20283;-57
2024/01/18 04:23:07;;;;;;;0.20;0.20;;;;;;;8.26;100.00;94198.31;5102373;28;20302;-57
2024/01/18 04:25:35;;;;;;;0.70;0.23;;;;;;;8.20;100.00;94199.06;5102242;28;20206;-57
2024/01/18 04:28:02;;;;;;;0.33;0.30;;;;;;;8.12;100.00;94189.47;5102686;28;20211;-56
2024/01/18 04:30:29;;;;;;;0.50;0.27;;;;;;;8.09;100.00;94189.84;5102496;28;20613;-57
2024/01/18 04:32:56;;;;;;;0.20;0.20;;;;;;;8.09;100.00;94183.78;5102214;28;20214;-56
2024/01/18 04:35:22;;;;;;;0.43;0.40;;;;;;;8.03;100.00;94180.09;5103072;28;20232;-57
2024/01/18 04:37:49;;;;;;;3.70;0.30;;;;;;;8.04;100.00;94183.53;5101860;28;20295;-57
2024/01/18 04:40:16;;;;;;;1.43;0.30;;;;;;;8.01;100.00;94184.69;5102543;28;20231;-57
2024/01/18 04:42:44;;;;;;;0.40;0.37;;;;;;;8.00;100.00;94178.66;5102035;28;20525;-57
2024/01/18 04:45:11;;;;;;;0.70;0.70;;;;;;;8.02;100.00;94192.41;5102420;28;20273;-56
2024/01/18 04:47:38;;;;;;;4.23;3.83;;;;;;;8.10;100.00;94188.84;5105161;28;20327;-55
2024/01/18 04:50:05;;;;;;;0.63;0.63;;;;;;;8.16;100.00;94192.53;5106208;28;20637;-57
2024/01/18 04:52:32;;;;;;;0.47;0.47;;;;;;;8.21;100.00;94187.53;5106193;28;20236;-57
2024/01/18 04:55:02;;;;;;;0.40;0.40;;;;;;;8.19;100.00;94200.06;5106439;28;20235;-56
2024/01/18 04:57:29;;;;;;;2.00;0.43;;;;;;;8.22;100.00;94191.81;5107139;28;20204;-56
2024/01/18 04:59:58;;;;;;;0.60;0.60;;;;;;;8.31;100.00;94193.34;5105882;28;20200;-57
2024/01/18 05:02:24;;;;;;;0.37;0.30;;;;;;;8.26;100.00;94182.50;5120137;28;20220;-57
2024/01/18 05:04:51;;;;;;;0.40;0.40;;;;;;;8.26;100.00;94185.16;5118904;28;20292;-57
2024/01/18 05:07:17;;;;;;;1.07;0.40;;;;;;;8.30;100.00;94186.44;5115747;28;20282;-57
2024/01/18 05:09:44;;;;;;;0.40;0.40;;;;;;;8.32;100.00;94187.91;5115314;28;20205;-56
2024/01/18 05:12:11;;;;;;;0.20;0.20;;;;;;;8.38;100.00;94179.22;5106648;28;20324;-57
2024/01/18 05:14:37;;;;;;;0.77;0.67;;;;;;;8.40;100.00;94185.09;5106114;28;20225;-57
2024/01/18 05:17:10;;;;;;;0.53;0.40;;;;;;;8.43;100.00;94178.66;5105954;28;20284;-55
2024/01/18 05:19:37;;;;;;;0.40;0.40;;;;;;;8.46;100.00;94188.81;5105590;28;20280;-57
2024/01/18 05:22:04;;;;;;;0.40;0.40;;;;;;;8.43;100.00;94182.09;5106476;28;20193;-57
2024/01/18 05:24:31;;;;;;;0.57;0.57;;;;;;;8.43;100.00;94183.94;5105392;28;20201;-55
2024/01/18 05:26:57;;;;;;;0.63;0.40;;;;;;;8.39;100.00;94188.75;5105771;28;20221;-57
2024/01/18 05:29:24;;;;;;;1.07;0.40;;;;;;;8.40;100.00;94187.75;5105937;28;20292;-57
2024/01/18 05:31:51;;;;;;;0.40;0.40;;;;;;;8.38;100.00;94189.75;5105130;28;20209;-57
2024/01/18 05:34:19;;;;;;;0.47;0.47;;;;;;;8.35;100.00;94189.31;5105321;28;20250;-57
2024/01/18 05:36:47;;;;;;;0.37;0.37;;;;;;;8.37;100.00;94189.94;5086911;28;20581;-57
2024/01/18 05:39:14;;;;;;;1.10;0.40;;;;;;;8.35;100.00;94181.44;5104988;28;20209;-57
2024/01/18 05:41:40;;;;;;;0.43;0.40;;;;;;;8.43;100.00;94179.47;5105230;28;20614;-57
2024/01/18 05:44:07;;;;;;;0.30;0.30;;;;;;;8.51;100.00;94183.78;5105112;28;20631;-56
2024/01/18 05:46:34;;;;;;;0.30;0.30;;;;;;;8.56;100.00;94186.66;5105368;27;20648;-57
2024/01/18 05:49:02;;;;;;;0.30;0.30;;;;;;;8.57;100.00;94175.13;5104698;28;20985;-57
2024/01/18 05:51:30;;;;;;;0.20;0.20;;;;;;;8.58;100.00;94182.00;5105261;28;20737;-57
2024/01/18 05:53:57;;;;;;;0.30;0.30;;;;;;;8.66;100.00;94173.16;5104637;28;20236;-57
2024/01/18 05:56:23;;;;;;;0.57;0.50;;;;;;;8.65;100.00;94174.97;5105385;28;20204;-57
2024/01/18 05:58:50;;;;;;;0.50;0.50;;;;;;;8.57;100.00;94167.22;5105635;28;20210;-56
2024/01/18 06:01:17;;;;;;;0.40;0.40;;;;;;;8.47;100.00;94174.63;5105248;28;20198;-56
2024/01/18 06:03:43;;;;;;;2.43;0.40;;;;;;;8.45;100.00;94174.00;5104503;28;20206;-57
2024/01/18 06:06:11;;;;;;;0.80;0.50;;;;;;;8.37;100.00;94195.19;5105770;28;20248;-57
2024/01/18 06:08:39;;;;;;;1.07;0.30;;;;;;;8.34;100.00;94192.94;5108066;28;20205;-57
2024/01/18 06:11:05;;;;;;;0.40;0.40;;;;;;;8.37;100.00;94190.75;5091604;28;20329;-56
2024/01/18 06:13:32;;;;;;;0.60;0.60;;;;;;;8.38;100.00;94202.09;5112139;28;20312;-57
2024/01/18 06:15:58;;;;;;;3.03;1.23;;;;;;;8.34;100.00;94198.22;5108753;28;20201;-57
2024/01/18 06:18:25;;;;;;;0.90;0.90;;;;;;;8.29;100.00;94201.41;5105602;28;20233;-56
2024/01/18 06:20:52;;;;;;;1.50;1.40;;;;;;;8.21;100.00;94208.59;5105314;28;20276;-56
2024/01/18 06:23:18;;;;;;;2.10;0.97;;;;;;;8.22;100.00;94215.50;5104900;28;20205;-54
2024/01/18 06:25:46;;;;;;;2.17;1.57;;;;;;;8.17;100.00;94215.25;5106467;28;20201;-55
2024/01/18 06:28:14;;;;;;;1.40;1.37;;;;;;;8.10;100.00;94214.34;5109793;28;20199;-55
2024/01/18 06:30:43;;;;;;;1.47;1.37;;;;;;;8.09;100.00;94213.53;5108273;28;20215;-56
2024/01/18 06:33:10;;;;;;;0.90;0.90;;;;;;;8.08;100.00;94226.91;5104879;28;20282;-56
2024/01/18 06:35:37;;;;;;;1.30;0.97;;;;;;;8.02;100.00;94218.75;5105062;28;20297;-56
2024/01/18 06:38:03;;;;;;;0.97;0.87;;;;;;;8.04;100.00;94223.81;5105177;28;20194;-57
2024/01/18 06:40:30;;;;;;;1.90;1.00;;;;;;;8.04;100.00;94223.81;5104147;28;20285;-56
2024/01/18 06:42:58;;;;;;;2.17;1.07;;;;;;;8.00;100.00;94226.03;5103454;28;20211;-57
2024/01/18 06:45:25;;;;;;;1.30;1.20;;;;;;;8.01;100.00;94227.63;5104172;27;20281;-57
2024/01/18 06:47:51;;;;;;;1.03;1.03;;;;;;;7.99;100.00;94219.13;5103742;28;20201;-58
2024/01/18 06:50:18;;;;;;;1.30;1.20;;;;;;;8.01;100.00;94214.47;5103743;28;20630;-56
2024/01/18 06:52:44;;;;;;;1.83;0.90;;;;;;;8.01;100.00;94211.84;5103019;28;20303;-57
2024/01/18 06:55:11;;;;;;;1.80;0.70;;;;;;;8.06;100.00;94218.38;5103809;28;20699;-58
2024/01/18 06:57:39;;;;;;;0.50;0.50;;;;;;;8.08;100.00;94214.53;5103520;28;20207;-57
2024/01/18 07:00:08;;;;;;;0.73;0.67;;;;;;;8.09;100.00;94215.34;5103912;28;20223;-56
2024/01/18 07:02:34;;;;;;;1.03;0.70;;;;;;;8.11;100.00;94211.56;5102345;28;20807;-57
2024/01/18 07:05:01;;;;;;;0.50;0.50;;;;;;;8.08;100.00;94216.38;5103817;28;20201;-56
2024/01/18 07:07:27;;;;;;;0.97;0.77;;;;;;;8.14;100.00;94226.16;5097458;28;20229;-57
2024/01/18 07:09:55;;;;;;;0.47;0.47;;;;;;;8.13;100.00;94219.25;5100512;28;20198;-56
2024/01/18 07:12:21;;;;;;;1.13;0.53;;;;;;;8.12;100.00;94214.97;5100696;28;20614;-57
2024/01/18 07:14:49;;;;;;;0.90;0.60;;;;;;;8.20;100.00;94220.13;5097778;28;20556;-57
2024/01/18 07:17:17;;;;;;;1.03;0.30;;;;;;;8.21;100.00;94217.31;5100001;28;20197;-56
2024/01/18 07:19:44;;;;;;;0.60;0.60;;;;;;;8.28;100.00;94233.19;5100407;28;20631;-58
2024/01/18 07:22:11;;;;;;;1.30;0.40;;;;;;;8.31;100.00;94230.19;5100577;28;20511;-56
2024/01/18 07:24:38;;;;;;;1.70;1.60;;;;;;;8.34;100.00;94238.53;5100902;28;20200;-57
2024/01/18 07:27:09;;;;;;;0.60;0.60;;;;;;;8.52;100.00;94232.00;5100287;28;20205;-57
2024/01/18 07:29:35;;;;;;;2.73;2.30;;;;;;;8.44;100.00;94225.84;5099798;28;20205;-57
2024/01/18 07:32:02;;;;;;;1.60;1.50;;;;;;;8.45;100.00;94230.13;5099312;28;20212;-57
2024/01/18 07:34:32;;;;;;;0.80;0.57;;;;;;;8.49;100.00;94223.50;5100824;28;20225;-57
2024/01/18 07:36:58;;;;;;;0.77;0.50;;;;;;;8.46;100.00;94225.69;5100828;28;20211;-57
2024/01/18 07:39:25;;;;;;;0.40;0.40;;;;;;;8.46;100.00;94225.69;5100408;28;20288;-57
2024/01/18 07:41:52;;;;;;;0.33;0.33;;;;;;;8.46;100.00;94229.13;5100715;28;20240;-57
2024/01/18 07:44:18;;;;;;;0.40;0.40;;;;;;;8.49;100.00;94217.41;5100318;28;20313;-57
2024/01/18 07:46:45;;;;;;;1.50;0.40;;;;;;;8.50;100.00;94209.28;5099653;28;20202;-58
2024/01/18 07:49:11;;;;;;;1.27;0.50;;;;;;;8.53;100.00;94221.28;5100331;28;20545;-56
2024/01/18 07:51:39;;;;;;;0.40;0.40;;;;;;;8.53;100.00;94215.19;5098390;28;20209;-56
2024/01/18 07:54:06;;;;;;;0.47;0.47;;;;;;;8.53;100.00;94208.13;5100657;28;20216;-57
2024/01/18 07:56:33;;;;;;;1.03;0.67;;;;;;;8.59;100.00;94220.53;5100246;28;20205;-57
2024/01/18 07:58:59;;;;;;;0.60;0.60;;;;;;;8.55;100.00;94210.53;5100557;28;20210;-57
2024/01/18 08:01:26;;;;;;;0.10;0.10;;;;;;;8.57;100.00;94217.28;5099889;28;20205;-57
2024/01/18 08:03:52;;;;;;;1.60;0.40;;;;;;;8.63;100.00;94221.78;5100626;28;20189;-57
2024/01/18 08:06:19;;;;;;;0.63;0.60;;;;;;;8.55;100.00;94226.34;5107411;27;20246;-57
2024/01/18 08:08:47;;;;;;;0.20;0.20;;;;;;;8.64;100.00;94219.97;5101151;28;20633;-57
2024/01/18 08:11:14;;;;;;;1.90;0.40;;;;;;;8.72;100.00;94228.53;5100804;28;20622;-57
2024/01/18 08:13:41;;;;;;;0.37;0.37;;;;;;;8.79;100.00;94215.41;5102016;28;20309;-57
2024/01/18 08:16:07;;;;;;;0.67;0.50;;;;;;;8.83;100.00;94228.00;5101253;28;20205;-56
2024/01/18 08:18:35;;;;;;;1.70;1.50;;;;;;;8.87;100.00;94225.81;5105697;28;20225;-56
2024/01/18 08:21:01;;;;;;;0.60;0.60;;;;;;;8.98;100.00;94215.56;5110252;28;20242;-58
2024/01/18 08:23:28;;;;;;;1.70;0.40;;;;;;;9.05;100.00;94225.31;5116899;28;20277;-57
2024/01/18 08:25:56;;;;;;;0.50;0.40;;;;;;;9.05;100.00;94217.41;5109193;28;20332;-57
2024/01/18 08:28:23;;;;;;;0.53;0.53;;;;;;;9.12;100.00;94226.19;5101622;28;20201;-57
2024/01/18 08:30:49;;;;;;;0.40;0.40;;;;;;;9.14;100.00;94227.59;5101669;28;20212;-57
2024/01/18 08:33:16;;;;;;;3.87;1.47;;;;;;;9.16;100.00;94235.34;5101855;28;20543;-57
2024/01/18 08:35:43;;;;;;;3.90;1.60;;;;;;;9.16;100.00;94232.72;5100786;28;20194;-57
2024/01/18 08:38:09;;;;;;;1.17;0.57;;;;;;;9.14;100.00;94226.81;5101410;28;20216;-57
2024/01/18 08:40:36;;;;;;;0.80;0.80;;;;;;;9.17;100.00;94231.72;5101190;28;20202;-57
2024/01/18 08:43:04;;;;;;;1.03;0.97;;;;;;;9.21;100.00;94231.09;5101722;28;20237;-57
2024/01/18 08:45:31;;;;;;;0.93;0.73;;;;;;;9.26;100.00;94230.53;5101769;28;20205;-57
2024/01/18 08:47:58;;;;;;;0.87;0.87;;;;;;;9.31;100.00;94228.16;5102345;28;20208;-57
2024/01/18 08:50:25;;;;;;;0.50;0.40;;;;;;;9.36;100.00;94237.09;5111278;28;20197;-57
2024/01/18 08:52:52;;;;;;;0.40;0.40;;;;;;;9.43;100.00;94229.22;5116132;28;20216;-58
2024/01/18 08:55:19;;;;;;;1.70;0.50;;;;;;;9.48;100.00;94232.09;5115844;28;20229;-57
2024/01/18 08:57:45;;;;;;;2.43;1.23;;;;;;;9.54;100.00;94235.75;5117351;28;20208;-57
2024/01/18 09:00:17;;;;;;;0.70;0.50;;;;;;;9.61;100.00;94247.16;5116734;28;20234;-57
2024/01/18 09:02:45;;;;;;;1.17;0.83;;;;;;;9.61;100.00;94244.53;5116907;28;20193;-57
2024/01/18 09:05:11;;;;;;;1.33;1.00;;;;;;;9.59;100.00;94252.66;5117446;28;20225;-57
2024/01/18 09:07:38;;;;;;;1.43;0.80;;;;;;;9.63;100.00;94256.53;5117267;28;20268;-56
2024/01/18 09:10:06;;;;;;;0.33;0.33;;;;;;;9.68;100.00;94262.00;5117114;28;20264;-57
2024/01/18 09:12:33;;;;;;;1.50;0.60;;;;;;;9.67;100.00;94249.81;5116854;28;20228;-57
2024/01/18 09:15:00;;;;;;;0.40;0.40;;;;;;;9.60;100.00;94251.63;5116624;28;20232;-57
2024/01/18 09:17:28;;;;;;;2.13;0.90;;;;;;;9.65;100.00;94240.47;5123279;28;20277;-57
2024/01/18 09:19:55;;;;;;;0.50;0.50;;;;;;;9.75;100.00;94249.66;5119518;28;20702;-57
2024/01/18 09:22:21;;;;;;;0.80;0.53;;;;;;;9.75;100.00;94244.38;5117882;28;20265;-57
2024/01/18 09:24:49;;;;;;;0.60;0.60;;;;;;;9.78;100.00;94244.00;5108248;28;20216;-58
2024/01/18 09:27:16;;;;;;;0.57;0.57;;;;;;;9.75;100.00;94256.75;5101681;28;20201;-56
2024/01/18 09:29:44;;;;;;;0.70;0.70;;;;;;;9.73;100.00;94254.34;5098944;28;20644;-58
2024/01/18 09:32:12;;;;;;;0.60;0.60;;;;;;;9.76;100.00;94268.97;5102272;28;20284;-58
2024/01/18 09:34:40;;;;;;;1.07;0.70;;;;;;;9.74;100.00;94271.00;5104581;28;20224;-57
2024/01/18 09:37:06;;;;;;;0.70;0.70;;;;;;;9.69;100.00;94270.75;5106503;27;20202;-57
2024/01/18 09:39:33;;;;;;;0.80;0.80;;;;;;;9.55;100.00;94269.88;5105387;28;20304;-57
2024/01/18 09:42:01;;;;;;;0.40;0.40;;;;;;;9.61;100.00;94274.38;5104960;28;20664;-57
2024/01/18 09:44:30;;;;;;;0.50;0.50;;;;;;;9.65;100.00;94275.59;5088892;28;20204;-58
2024/01/18 09:46:57;;;;;;;0.73;0.73;;;;;;;9.69;100.00;94282.13;5105639;27;20650;-57
2024/01/18 09:49:25;;;;;;;1.37;0.60;;;;;;;9.65;100.00;94286.16;5104462;28;20207;-57
2024/01/18 09:51:55;;;;;;;0.73;0.73;;;;;;;9.70;100.00;94296.97;5103935;28;20232;-56
2024/01/18 09:54:22;;;;;;;0.67;0.50;;;;;;;9.72;100.00;94286.19;5104739;28;20282;-57
2024/01/18 09:56:53;;;;;;;0.50;0.40;;;;;;;9.73;100.00;94291.28;5103898;28;20201;-57
2024/01/18 09:59:21;;;;;;;0.60;0.60;;;;;;;9.75;100.00;94294.53;5104023;28;20208;-57
2024/01/18 10:01:48;;;;;;;3.37;1.30;;;;;;;9.83;100.00;94297.00;5103757;27;20660;-57
2024/01/18 10:04:17;;;;;;;5.60;5.07;;;;;;;9.88;100.00;94301.72;5104215;28;20761;-56
2024/01/18 10:06:43;;;;;;;1.93;0.40;;;;;;;10.01;100.00;94299.13;5104472;28;20237;-57
2024/01/18 10:09:14;;;;;;;0.40;0.40;;;;;;;9.98;100.00;94300.34;5103980;28;20204;-57
2024/01/18 10:11:41;;;;;;;0.47;0.47;;;;;;;10.01;100.00;94307.06;5103725;28;20202;-57
2024/01/18 10:14:08;;;;;;;1.47;1.37;;;;;;;9.99;100.00;94304.59;5103591;28;20661;-57
2024/01/18 10:16:37;;;;;;;3.23;0.87;;;;;;;10.08;100.00;94317.63;5103432;27;20309;-57
2024/01/18 10:19:05;;;;;;;0.60;0.53;;;;;;;10.08;100.00;94307.06;5111330;28;20216;-57
2024/01/18 10:21:33;;;;;;;0.90;0.70;;;;;;;10.17;100.00;94311.19;5111227;28;20202;-57
2024/01/18 10:24:02;;;;;;;1.13;0.50;;;;;;;10.22;100.00;94300.88;5111537;28;20216;-57
2024/01/18 10:26:31;;;;;;;0.60;0.60;;;;;;;10.24;100.00;94307.56;5112749;28;20198;-58
2024/01/18 10:28:58;;;;;;;0.43;0.43;;;;;;;10.27;100.00;94306.38;5107482;28;20266;-57
2024/01/18 10:31:24;;;;;;;1.70;0.80;;;;;;;10.26;100.00;94304.75;5107976;28;20212;-57
2024/01/18 10:33:51;;;;;;;0.70;0.60;;;;;;;10.36;100.00;94306.00;5113300;28;20272;-57
2024/01/18 10:36:18;;;;;;;6.43;1.30;;;;;;;10.41;100.00;94302.78;5107977;28;20304;-59
2024/01/18 10:38:46;;;;;;;2.47;0.90;;;;;;;10.47;100.00;94302.78;5109016;28;20201;-56
2024/01/18 10:41:18;;;;;;;4.33;0.60;;;;;;;10.45;100.00;94298.72;5104381;28;20305;-57
2024/01/18 10:43:48;;;;;;;0.50;0.47;;;;;;;10.57;100.00;94307.69;5103060;28;20329;-57
2024/01/18 10:46:15;;;;;;;0.73;0.50;;;;;;;10.57;100.00;94302.38;5106084;28;20219;-55
2024/01/18 10:48:45;;;;;;;2.73;2.43;;;;;;;10.67;100.00;94294.88;5107186;28;20203;-57
2024/01/18 10:51:12;;;;;;;1.47;0.70;;;;;;;10.90;100.00;94287.41;5103087;28;20220;-57
2024/01/18 10:53:41;;;;;;;0.83;0.60;;;;;;;11.03;100.00;94296.34;5102703;28;20240;-57
2024/01/18 10:56:07;;;;;;;1.37;0.80;;;;;;;11.15;100.00;94307.97;5102802;28;20569;-55
2024/01/18 10:58:34;;;;;;;0.50;0.50;;;;;;;11.19;100.00;94309.19;5103308;28;20198;-56
2024/01/18 11:01:03;;;;;;;0.47;0.47;;;;;;;11.30;100.00;94319.16;5101842;28;20522;-56
2024/01/18 11:03:30;;;;;;;0.40;0.40;;;;;;;11.44;100.00;94289.81;5103008;28;20358;-57
2024/01/18 11:05:58;;;;;;;0.60;0.60;;;;;;;11.56;100.00;94291.84;5101727;28;20312;-57
2024/01/18 11:08:24;;;;;;;0.50;0.50;;;;;;;11.51;100.00;94305.72;5094719;28;20259;-56
2024/01/18 11:10:51;;;;;;;1.40;0.40;;;;;;;11.58;100.00;94298.56;5093894;28;20627;-56
2024/01/18 11:13:18;;;;;;;0.87;0.73;;;;;;;11.77;100.00;94308.34;5092911;28;20603;-57
2024/01/18 11:15:47;;;;;;;0.35;0.35;;;;;;;11.82;100.00;94308.53;5092151;28;20226;-57
2024/01/18 11:18:15;;;;;;;0.32;0.30;;;;;;;11.85;100.00;94297.53;5096275;28;20203;-56
2024/01/18 11:21:04;;;;;;;1.67;0.38;;;;;;;12.00;100.00;94299.13;5098270;28;20202;-56
2024/01/18 11:23:35;;;;;;;1.60;0.33;;;;;;;12.01;100.00;94306.84;5099160;28;20198;-57
2024/01/18 11:26:04;;;;;;;0.55;0.30;;;;;;;12.06;100.00;94299.09;5098429;28;20193;-57
2024/01/18 11:28:30;;;;;;;1.83;0.40;;;;;;;12.14;100.00;94306.00;5098338;28;20227;-57
2024/01/18 11:30:57;;;;;;;1.60;0.20;;;;;;;12.06;100.00;94298.28;5098364;28;20541;-57